Hunter River, Canada
Current Conditions -  °F | °C
As of 2:00 AM on Thursday 23 Oct 2014 (Local Time) from CYYG Reporting Station
Broken Clouds Broken Clouds  
Wind Chill: 43°   Ceiling: 10000
Heat Index: 48°   Visibility: 15mi
Dew Point: 45°   Wind: 12mph
Humidity: 87%   Direction: 50°NE
Pressure: 30.28"   Gusts: NA
Location:  46.35°N, 63.35°W
Report Text: CYYG 230500Z 05010KT 15SM FEW050 BKN100 09/07 A3028 RMK SC2AC5 SLP255
Loading
Personal Weather Stations






























Interactive Weather Map
Tropical Storm Tracking
New forecast layout! Learn more

10-Day Weather Forecast

Advertisements
Track Severe Weather on mobile